createdAt,value
2023-12-19T00:01:40.210Z,7.13
2023-12-19T00:05:44.868Z,6.60
2023-12-19T00:09:48.305Z,6.33
2023-12-19T00:13:52.989Z,6.87
2023-12-19T00:17:56.413Z,6.10
2023-12-19T00:21:59.751Z,6.43
2023-12-19T00:26:03.389Z,5.90
2023-12-19T00:30:09.339Z,6.13
2023-12-19T00:34:12.667Z,6.63
2023-12-19T00:38:16.101Z,5.53
2023-12-19T00:42:19.357Z,5.57
2023-12-19T00:46:24.122Z,6.00
2023-12-19T00:50:27.391Z,5.63
2023-12-19T00:54:30.647Z,5.90
2023-12-19T00:58:33.940Z,6.10
2023-12-19T01:02:38.543Z,6.33
2023-12-19T01:06:42.337Z,5.20
2023-12-19T01:10:45.667Z,7.03
2023-12-19T01:14:48.975Z,6.33
2023-12-19T01:18:53.675Z,6.17
2023-12-19T01:22:56.984Z,5.43
2023-12-19T01:27:00.212Z,6.73
2023-12-19T01:31:03.562Z,7.20
2023-12-19T01:35:10.060Z,6.87
2023-12-19T01:39:13.402Z,6.33
2023-12-19T01:43:21.153Z,7.10
2023-12-19T01:47:25.132Z,6.40
2023-12-19T01:51:30.003Z,5.13
2023-12-19T01:55:33.735Z,6.53
2023-12-19T01:59:37.870Z,6.10
2023-12-19T02:03:42.566Z,5.90
2023-12-19T02:07:47.606Z,5.60
2023-12-19T02:11:50.943Z,5.57
2023-12-19T02:15:54.557Z,5.43
2023-12-19T02:19:57.947Z,5.80
2023-12-19T02:24:02.846Z,5.83
2023-12-19T02:28:06.711Z,6.43
2023-12-19T02:32:10.028Z,6.60
2023-12-19T02:36:13.391Z,6.10
2023-12-19T02:40:18.165Z,6.00
2023-12-19T02:44:21.389Z,6.60
2023-12-19T02:48:24.940Z,5.80
2023-12-19T02:52:28.290Z,5.50
2023-12-19T02:56:33.412Z,5.33
2023-12-19T03:00:36.786Z,6.03
2023-12-19T03:04:41.069Z,5.50
2023-12-19T03:08:47.283Z,5.70
2023-12-19T03:12:51.907Z,4.83
2023-12-19T03:16:55.105Z,5.10
2023-12-19T03:20:58.379Z,6.30
2023-12-19T03:25:01.844Z,4.97
2023-12-19T03:29:06.562Z,4.23
2023-12-19T03:33:09.937Z,4.73
2023-12-19T03:37:13.390Z,5.53
2023-12-19T03:41:16.752Z,4.47
2023-12-19T03:45:21.437Z,4.80
2023-12-19T03:49:24.897Z,5.17
2023-12-19T03:53:28.537Z,5.63
2023-12-19T03:57:32.419Z,4.30
2023-12-19T04:01:45.054Z,4.63
2023-12-19T04:05:48.418Z,4.57
2023-12-19T04:09:51.688Z,6.40
2023-12-19T04:13:54.876Z,4.93
2023-12-19T04:17:59.620Z,4.83
2023-12-19T04:22:03.532Z,4.87
2023-12-19T04:26:06.825Z,5.17
2023-12-19T04:30:10.859Z,5.90
2023-12-19T04:34:15.886Z,5.13
2023-12-19T04:38:19.170Z,5.17
2023-12-19T04:42:22.453Z,5.00
2023-12-19T04:46:25.812Z,6.40
2023-12-19T04:50:30.527Z,6.67
2023-12-19T04:54:33.850Z,5.10
2023-12-19T04:58:37.566Z,5.33
2023-12-19T05:02:41.052Z,6.30
2023-12-19T05:06:47.046Z,6.90
2023-12-19T05:10:50.567Z,8.27
2023-12-19T05:14:54.004Z,11.17
2023-12-19T05:18:57.290Z,8.87
2023-12-19T05:23:02.633Z,8.17
2023-12-19T05:27:06.556Z,7.97
2023-12-19T05:31:11.236Z,9.17
2023-12-19T05:35:14.663Z,7.30
2023-12-19T05:39:19.480Z,8.60
2023-12-19T05:43:22.783Z,6.70
2023-12-19T05:47:26.704Z,6.37
2023-12-19T05:51:29.995Z,6.57
2023-12-19T05:55:34.732Z,7.20
2023-12-19T05:59:37.984Z,6.03
2023-12-19T06:03:41.586Z,5.43
2023-12-19T06:07:45.105Z,5.10
2023-12-19T06:11:49.664Z,6.90
2023-12-19T06:15:53.566Z,5.50
2023-12-19T06:19:57.689Z,6.47
2023-12-19T06:24:01.197Z,6.73
2023-12-19T06:28:10.883Z,6.33
2023-12-19T06:32:19.346Z,7.17
2023-12-19T06:36:34.256Z,7.33
2023-12-19T06:40:39.021Z,6.87
2023-12-19T06:44:43.663Z,6.23
2023-12-19T06:48:47.071Z,8.30
2023-12-19T06:52:50.358Z,10.20
2023-12-19T06:56:54.004Z,8.90
2023-12-19T07:00:58.681Z,9.10
2023-12-19T07:05:02.046Z,8.83
2023-12-19T07:09:05.371Z,9.60
2023-12-19T07:13:08.587Z,10.47
2023-12-19T07:17:14.054Z,7.90
2023-12-19T07:21:22.009Z,8.03
2023-12-19T07:25:25.896Z,5.83
2023-12-19T07:29:29.188Z,7.40
2023-12-19T07:33:34.185Z,8.23
2023-12-19T07:37:39.018Z,10.30
2023-12-19T07:41:42.534Z,10.00
2023-12-19T07:45:46.019Z,9.50
2023-12-19T07:49:51.197Z,10.80
2023-12-19T07:53:56.952Z,10.97
2023-12-19T07:58:00.308Z,10.00
2023-12-19T08:02:03.637Z,7.70
2023-12-19T08:06:08.853Z,6.57
2023-12-19T08:10:12.180Z,7.20
2023-12-19T08:14:15.487Z,7.80
2023-12-19T08:18:19.248Z,7.43
2023-12-19T08:22:24.433Z,6.63
2023-12-19T08:26:27.624Z,6.00
2023-12-19T08:30:31.946Z,6.20
2023-12-19T08:34:35.366Z,5.70
2023-12-19T08:38:40.619Z,6.67
2023-12-19T08:42:44.374Z,6.80
2023-12-19T08:46:47.699Z,7.33
2023-12-19T08:50:50.998Z,7.03
2023-12-19T08:54:55.704Z,6.90
2023-12-19T08:58:58.943Z,6.97
2023-12-19T09:03:02.241Z,6.70
2023-12-19T09:07:05.885Z,7.23
2023-12-19T09:11:10.553Z,7.27
2023-12-19T09:15:13.826Z,8.30
2023-12-19T09:19:18.462Z,8.50
2023-12-19T09:23:21.723Z,8.73
2023-12-19T09:27:27.060Z,9.83
2023-12-19T09:31:30.483Z,9.67
2023-12-19T09:35:34.102Z,9.90
2023-12-19T09:39:37.450Z,9.27
2023-12-19T09:43:42.252Z,9.13
2023-12-19T09:47:55.969Z,8.40
2023-12-19T09:52:01.587Z,8.53
2023-12-19T09:56:04.957Z,8.30
2023-12-19T10:00:14.914Z,9.27
2023-12-19T10:04:18.796Z,8.67
2023-12-19T10:08:23.109Z,8.17
2023-12-19T10:12:34.007Z,8.43
2023-12-19T10:16:42.988Z,7.30
2023-12-19T10:20:46.339Z,9.10
2023-12-19T10:24:49.546Z,6.70
2023-12-19T10:28:58.042Z,7.30
2023-12-19T10:33:02.826Z,7.50
2023-12-19T10:37:12.400Z,5.60
2023-12-19T10:41:23.452Z,6.10
2023-12-19T10:45:27.729Z,5.60
2023-12-19T10:49:32.851Z,4.90
2023-12-19T10:53:38.303Z,4.50
2023-12-19T10:57:44.685Z,6.73
2023-12-19T11:01:49.840Z,6.07
2023-12-19T11:05:57.532Z,6.47
2023-12-19T11:10:06.257Z,6.47
2023-12-19T11:14:14.476Z,6.33
2023-12-19T11:18:24.386Z,6.80
2023-12-19T11:22:38.478Z,6.00
2023-12-19T11:26:47.705Z,4.47
2023-12-19T11:30:51.069Z,5.50
2023-12-19T11:34:54.434Z,5.03
2023-12-19T11:39:27.403Z,5.50
2023-12-19T11:43:55.982Z,6.00
2023-12-19T11:47:59.227Z,6.63
2023-12-19T11:52:02.635Z,6.23
2023-12-19T11:56:11.890Z,6.00
2023-12-19T12:00:15.959Z,6.73
2023-12-19T12:04:22.307Z,5.90
2023-12-19T12:08:25.940Z,5.40
2023-12-19T12:12:34.615Z,5.50
2023-12-19T12:16:40.371Z,6.47
2023-12-19T12:20:43.860Z,5.30
2023-12-19T12:24:47.389Z,5.17
2023-12-19T12:28:53.208Z,6.53
2023-12-19T12:32:56.766Z,4.70
2023-12-19T12:37:00.236Z,5.53
2023-12-19T12:41:05.931Z,4.83
2023-12-19T12:45:11.045Z,5.93
2023-12-19T12:49:20.570Z,4.90
2023-12-19T12:53:24.862Z,5.30
2023-12-19T12:57:28.159Z,6.60
2023-12-19T13:01:33.052Z,8.03
2023-12-19T13:05:36.354Z,8.90
2023-12-19T13:09:39.632Z,8.07
2023-12-19T13:13:42.843Z,7.20
2023-12-19T13:17:47.899Z,7.10
2023-12-19T13:21:51.442Z,6.63
2023-12-19T13:25:57.977Z,5.80
2023-12-19T13:30:01.526Z,6.10
2023-12-19T13:34:06.759Z,5.07
2023-12-19T13:38:10.985Z,5.60
2023-12-19T13:42:14.337Z,5.73
2023-12-19T13:46:17.813Z,5.93
2023-12-19T13:50:22.883Z,6.60
2023-12-19T13:54:29.514Z,6.40
2023-12-19T13:58:32.815Z,6.13
2023-12-19T14:02:37.021Z,7.10
2023-12-19T14:06:41.750Z,6.57
2023-12-19T14:10:45.174Z,5.87
2023-12-19T14:14:49.188Z,6.50
2023-12-19T14:18:52.537Z,6.17
2023-12-19T14:22:57.482Z,5.70
2023-12-19T14:27:00.697Z,5.40
2023-12-19T14:31:04.327Z,5.10
2023-12-19T14:35:10.226Z,4.87
2023-12-19T14:39:16.714Z,3.83
2023-12-19T14:43:21.215Z,4.90
2023-12-19T14:47:25.449Z,4.03
2023-12-19T14:51:29.741Z,4.70
2023-12-19T14:55:37.039Z,3.83
2023-12-19T14:59:40.967Z,3.73
2023-12-19T15:03:44.761Z,3.90
2023-12-19T15:07:48.370Z,3.73
2023-12-19T15:11:53.128Z,3.90
2023-12-19T15:15:56.644Z,4.70
2023-12-19T15:20:00.185Z,4.40
2023-12-19T15:24:04.416Z,5.73
2023-12-19T15:28:17.144Z,5.07
2023-12-19T15:32:23.212Z,5.53
2023-12-19T15:36:26.488Z,5.43
2023-12-19T15:40:29.731Z,4.47
2023-12-19T15:44:35.009Z,5.90
2023-12-19T15:48:38.887Z,4.87
2023-12-19T15:52:42.623Z,5.00
2023-12-19T15:56:46.182Z,6.07
2023-12-19T16:00:51.503Z,5.80
2023-12-19T16:04:55.126Z,5.90
2023-12-19T16:08:58.419Z,5.33
2023-12-19T16:13:01.781Z,4.60
2023-12-19T16:17:06.763Z,5.40
2023-12-19T16:21:10.935Z,5.80
2023-12-19T16:25:35.532Z,7.40
2023-12-19T16:29:38.900Z,5.93
2023-12-19T16:33:43.966Z,6.10
2023-12-19T16:37:47.386Z,6.40
2023-12-19T16:41:51.547Z,6.53
2023-12-19T16:45:55.009Z,6.13
2023-12-19T16:50:00.488Z,5.80
2023-12-19T16:54:04.015Z,5.97
2023-12-19T16:58:07.701Z,6.60
2023-12-19T17:02:11.018Z,7.33
2023-12-19T17:06:16.804Z,8.13
2023-12-19T17:10:20.397Z,6.50
2023-12-19T17:14:23.996Z,6.87
2023-12-19T17:18:27.293Z,7.23
2023-12-19T17:22:32.732Z,6.27
2023-12-19T17:26:37.660Z,6.13
2023-12-19T17:30:41.071Z,8.03
2023-12-19T17:34:45.439Z,5.90
2023-12-19T17:38:50.097Z,7.87
2023-12-19T17:42:53.748Z,5.97
2023-12-19T17:46:57.061Z,6.23
2023-12-19T17:51:00.414Z,7.20
2023-12-19T17:55:05.702Z,7.07
2023-12-19T17:59:10.902Z,7.00
2023-12-19T18:03:14.729Z,6.70
2023-12-19T18:07:18.164Z,5.87
2023-12-19T18:11:22.971Z,6.00
2023-12-19T18:15:26.480Z,7.10
2023-12-19T18:19:29.971Z,5.83
2023-12-19T18:23:36.140Z,6.87
2023-12-19T18:27:41.036Z,7.37
2023-12-19T18:31:47.080Z,7.20
2023-12-19T18:35:52.764Z,7.47
2023-12-19T18:40:01.128Z,7.37
2023-12-19T18:44:07.902Z,7.40
2023-12-19T18:48:14.253Z,8.23
2023-12-19T18:52:19.734Z,10.50
2023-12-19T18:56:25.843Z,9.40
2023-12-19T19:00:32.820Z,10.33
2023-12-19T19:04:39.078Z,8.30
2023-12-19T19:08:45.747Z,8.10
2023-12-19T19:12:54.891Z,9.93
2023-12-19T19:17:02.158Z,11.40
2023-12-19T19:21:08.930Z,10.03
2023-12-19T19:25:15.018Z,11.00
2023-12-19T19:29:21.142Z,11.83
2023-12-19T19:33:35.023Z,12.33
2023-12-19T19:37:43.143Z,11.00
2023-12-19T19:41:50.719Z,10.67
2023-12-19T19:45:58.455Z,10.67
2023-12-19T19:50:12.288Z,10.57
2023-12-19T19:54:22.234Z,10.23
2023-12-19T19:58:30.847Z,11.40
2023-12-19T20:02:37.987Z,11.93
2023-12-19T20:06:46.658Z,10.70
2023-12-19T20:10:56.769Z,10.40
2023-12-19T20:15:04.156Z,9.97
2023-12-19T20:19:11.384Z,9.67
2023-12-19T20:23:19.336Z,9.50
2023-12-19T20:27:25.630Z,9.67
2023-12-19T20:31:34.827Z,9.97
2023-12-19T20:35:42.214Z,8.60
2023-12-19T20:39:50.457Z,9.07
2023-12-19T20:43:57.384Z,8.83
2023-12-19T20:48:03.766Z,8.27
2023-12-19T20:52:10.524Z,10.37
2023-12-19T20:56:19.586Z,7.77
2023-12-19T21:00:25.764Z,9.37
2023-12-19T21:04:29.361Z,9.63
2023-12-19T21:08:32.600Z,9.20
2023-12-19T21:12:38.128Z,9.30
2023-12-19T21:16:57.881Z,8.53
2023-12-19T21:21:09.381Z,9.40
2023-12-19T21:25:12.740Z,9.00
2023-12-19T21:29:20.466Z,9.07
2023-12-19T21:33:24.067Z,10.60
2023-12-19T21:37:27.503Z,8.23
2023-12-19T21:41:33.290Z,8.10
2023-12-19T21:45:38.933Z,8.40
2023-12-19T21:49:43.469Z,9.80
2023-12-19T21:53:47.379Z,9.13
2023-12-19T21:57:50.649Z,10.30
2023-12-19T22:01:55.552Z,10.07
2023-12-19T22:05:59.140Z,9.13
2023-12-19T22:10:04.196Z,8.47
2023-12-19T22:14:08.356Z,7.53
2023-12-19T22:18:13.023Z,10.63
2023-12-19T22:22:16.365Z,9.90
2023-12-19T22:26:20.032Z,9.47
2023-12-19T22:30:23.323Z,7.83
2023-12-19T22:34:28.165Z,8.40
2023-12-19T22:38:31.453Z,7.90
2023-12-19T22:42:34.850Z,9.00
2023-12-19T22:46:40.915Z,8.43
2023-12-19T22:50:47.035Z,8.80
2023-12-19T22:54:50.283Z,8.67
2023-12-19T22:58:53.621Z,8.57
2023-12-19T23:02:56.873Z,8.13
2023-12-19T23:07:01.541Z,7.83
2023-12-19T23:11:05.146Z,9.30
2023-12-19T23:15:10.257Z,8.47
2023-12-19T23:19:13.761Z,9.80
2023-12-19T23:23:18.675Z,8.33
2023-12-19T23:27:21.963Z,7.10
2023-12-19T23:31:30.042Z,8.40
2023-12-19T23:35:40.179Z,8.20
2023-12-19T23:39:44.935Z,6.20
2023-12-19T23:43:50.081Z,6.43
2023-12-19T23:47:53.396Z,7.17
2023-12-19T23:51:56.748Z,7.13
2023-12-19T23:56:01.381Z,6.20
